Time;durP1;ratioP1;P1;durP2;ratioP2;P2;SDS_P1;SDS_P2;PMS_P1;PMS_P2;Temp;Humidity;BMP_temperature;BMP_pressure;BME280_temperature;BME280_humidity;BME280_pressure;Samples;Min_cycle;Max_cycle;Signal;HPM_P1;HPM_P2
2023/07/22 00:00:14;;;;;;;2.35;1.42;;;;;;;18.50;83.38;99174.53;5093821;28;20036;-59
2023/07/22 00:02:45;;;;;;;0.95;0.88;;;;;;;18.57;83.66;99173.38;5093840;28;20143;-59
2023/07/22 00:05:14;;;;;;;1.20;1.10;;;;;;;18.69;83.94;99165.09;5094008;28;20039;-59
2023/07/22 00:07:42;;;;;;;1.47;1.07;;;;;;;18.86;84.17;99161.00;5093693;28;20046;-59
2023/07/22 00:10:13;;;;;;;1.00;0.73;;;;;;;18.98;83.86;99155.31;5093748;28;20482;-59
2023/07/22 00:12:42;;;;;;;0.77;0.77;;;;;;;19.03;83.73;99155.91;5093982;28;20284;-59
2023/07/22 00:15:11;;;;;;;1.17;1.03;;;;;;;19.02;83.99;99162.00;5093595;28;20055;-59
2023/07/22 00:17:42;;;;;;;1.52;1.23;;;;;;;19.03;84.34;99158.50;5093702;28;20393;-59
2023/07/22 00:20:14;;;;;;;0.80;0.77;;;;;;;19.12;84.55;99152.94;5093633;28;20051;-59
2023/07/22 00:22:43;;;;;;;1.58;1.10;;;;;;;19.11;84.61;99156.44;5093585;28;20044;-59
2023/07/22 00:25:13;;;;;;;1.80;0.85;;;;;;;19.14;84.75;99158.88;5093531;28;20090;-59
2023/07/22 00:27:43;;;;;;;1.02;0.90;;;;;;;19.22;84.71;99164.53;5093759;28;20393;-59
2023/07/22 00:30:14;;;;;;;1.17;0.95;;;;;;;19.16;84.54;99164.84;5092306;28;20050;-59
2023/07/22 00:32:43;;;;;;;1.45;0.93;;;;;;;19.14;84.72;99171.81;5094158;28;20402;-59
2023/07/22 00:35:13;;;;;;;1.20;1.10;;;;;;;19.18;84.96;99173.38;5092562;28;20557;-59
2023/07/22 00:37:42;;;;;;;1.40;1.17;;;;;;;19.29;84.92;99186.69;5093391;28;20121;-59
2023/07/22 00:40:12;;;;;;;1.30;1.10;;;;;;;19.28;84.82;99190.19;5093218;28;20045;-59
2023/07/22 00:42:44;;;;;;;0.95;0.88;;;;;;;19.27;84.61;99191.06;5093508;28;20055;-59
2023/07/22 00:45:13;;;;;;;1.42;1.23;;;;;;;19.23;84.50;99194.72;5093490;28;20094;-59
2023/07/22 00:47:42;;;;;;;1.05;0.93;;;;;;;19.21;84.47;99193.94;5092166;28;20068;-59
2023/07/22 00:50:11;;;;;;;2.85;1.35;;;;;;;19.14;84.44;99193.38;5093906;28;20068;-59
2023/07/22 00:52:40;;;;;;;1.10;1.00;;;;;;;19.03;84.70;99199.88;5092219;28;20043;-59
2023/07/22 00:55:10;;;;;;;1.00;0.98;;;;;;;18.93;84.89;99194.25;5092124;28;20334;-59
2023/07/22 00:57:39;;;;;;;3.83;1.67;;;;;;;18.93;84.74;99204.59;5093256;28;20048;-59
2023/07/22 01:00:12;;;;;;;1.45;0.98;;;;;;;18.92;84.87;99196.94;5092273;28;20044;-59
2023/07/22 01:02:42;;;;;;;1.77;1.10;;;;;;;18.93;84.96;99193.44;5093242;28;20076;-59
2023/07/22 01:05:13;;;;;;;2.38;1.63;;;;;;;19.02;84.70;99191.31;5092087;28;20036;-59
2023/07/22 01:07:43;;;;;;;2.28;1.25;;;;;;;19.11;84.74;99197.81;5094589;28;20059;-59
2023/07/22 01:10:14;;;;;;;2.28;1.83;;;;;;;19.19;84.45;99190.59;5095859;28;20044;-59
2023/07/22 01:12:45;;;;;;;2.00;1.30;;;;;;;19.11;84.18;99188.31;5095872;28;20062;-59
2023/07/22 01:15:15;;;;;;;;;;;;;;;19.11;84.47;99192.66;5097568;28;20040;-59
2023/07/22 01:17:44;;;;;;;1.30;1.20;;;;;;;19.10;84.48;99188.41;5096889;28;19920;-59
2023/07/22 01:20:16;;;;;;;1.30;1.10;;;;;;;19.09;84.62;99184.13;5097187;28;20032;-59
2023/07/22 01:22:52;;;;;;;1.13;0.95;;;;;;;19.09;84.94;99189.28;5097176;28;20048;-59
2023/07/22 01:25:23;;;;;;;1.50;1.40;;;;;;;19.13;84.98;99196.00;5096722;28;20052;-59
2023/07/22 01:27:53;;;;;;;2.88;0.98;;;;;;;19.18;85.14;99194.06;5096714;28;20048;-59
2023/07/22 01:30:23;;;;;;;1.30;1.20;;;;;;;19.25;85.06;99190.31;5097145;28;20047;-59
2023/07/22 01:32:52;;;;;;;2.13;1.27;;;;;;;19.34;85.08;99200.25;5096494;28;20040;-59
2023/07/22 01:35:21;;;;;;;2.40;1.15;;;;;;;19.38;84.99;99187.16;5095624;28;20101;-59
2023/07/22 01:37:51;;;;;;;1.48;1.25;;;;;;;19.42;84.69;99182.66;5096617;28;20131;-59
2023/07/22 01:40:20;;;;;;;1.67;1.15;;;;;;;19.44;84.93;99185.19;5095001;28;20059;-59
2023/07/22 01:42:49;;;;;;;0.80;0.80;;;;;;;19.47;84.90;99180.72;5097113;28;20048;-59
2023/07/22 01:45:18;;;;;;;1.03;0.93;;;;;;;19.43;84.96;99186.94;5095454;28;20040;-59
2023/07/22 01:47:47;;;;;;;2.08;1.55;;;;;;;19.42;85.19;99185.25;5096184;28;20047;-59
2023/07/22 01:50:18;;;;;;;1.30;1.17;;;;;;;19.42;85.22;99192.19;5096227;28;20497;-59
2023/07/22 01:52:47;;;;;;;1.52;1.05;;;;;;;19.47;85.31;99191.06;5096585;28;20044;-59
2023/07/22 01:55:18;;;;;;;1.35;1.20;;;;;;;19.52;85.10;99193.44;5096168;28;20090;-59
2023/07/22 01:57:47;;;;;;;2.35;1.20;;;;;;;19.52;85.14;99193.44;5096173;28;20123;-59
2023/07/22 02:00:16;;;;;;;0.90;0.75;;;;;;;19.58;85.03;99198.38;5096057;28;20044;-59
2023/07/22 02:02:46;;;;;;;1.75;1.13;;;;;;;19.57;85.06;99202.72;5094882;28;20048;-59
2023/07/22 02:05:16;;;;;;;1.63;1.08;;;;;;;19.53;85.02;99201.13;5096303;28;20040;-59
2023/07/22 02:07:45;;;;;;;2.85;1.60;;;;;;;19.48;85.04;99202.28;5095861;28;20486;-59
2023/07/22 02:10:14;;;;;;;3.35;1.13;;;;;;;19.46;85.18;99210.09;5095767;28;20060;-59
2023/07/22 02:12:44;;;;;;;1.83;1.20;;;;;;;19.38;85.22;99207.03;5111634;28;20530;-59
2023/07/22 02:15:13;;;;;;;1.02;0.98;;;;;;;19.33;85.33;99206.34;5096655;28;20079;-59
2023/07/22 02:17:42;;;;;;;2.75;1.20;;;;;;;19.36;85.38;99216.59;5096022;28;20047;-59
2023/07/22 02:20:12;;;;;;;1.27;1.15;;;;;;;19.29;85.14;99228.09;5093529;28;20119;-59
2023/07/22 02:22:41;;;;;;;;;;;;;;;19.27;85.33;99235.06;5096060;28;20040;-59
2023/07/22 02:25:10;;;;;;;0.73;0.68;;;;;;;19.26;85.03;99243.75;5095849;28;19920;-59
2023/07/22 02:27:40;;;;;;;1.42;1.23;;;;;;;19.24;84.97;99240.41;5095395;28;20604;-59
2023/07/22 02:30:11;;;;;;;1.17;1.08;;;;;;;19.22;84.95;99230.09;5094323;28;20539;-59
2023/07/22 02:32:41;;;;;;;0.80;0.80;;;;;;;19.24;84.81;99236.03;5095830;28;20378;-59
2023/07/22 02:35:11;;;;;;;0.85;0.85;;;;;;;19.28;84.65;99260.03;5095371;28;20043;-59
2023/07/22 02:37:40;;;;;;;;;;;;;;;19.31;84.45;99244.41;5094617;28;20044;-59
2023/07/22 02:40:10;;;;;;;1.60;1.00;;;;;;;19.41;84.21;99242.28;5094060;28;19924;-61
2023/07/22 02:42:40;;;;;;;0.65;0.65;;;;;;;19.42;83.83;99239.63;5095213;28;20308;-60
2023/07/22 02:45:12;;;;;;;1.27;1.17;;;;;;;19.45;83.72;99229.13;5094879;28;20040;-60
2023/07/22 02:47:41;;;;;;;2.28;1.85;;;;;;;19.41;83.74;99232.78;5095117;28;20119;-60
2023/07/22 02:50:11;;;;;;;3.03;1.65;;;;;;;19.41;83.65;99237.94;5095106;28;20524;-59
2023/07/22 02:52:41;;;;;;;4.18;1.10;;;;;;;19.32;83.79;99238.28;5095010;28;20044;-60
2023/07/22 02:55:12;;;;;;;2.33;1.63;;;;;;;19.33;84.11;99240.84;5095051;28;20052;-60
2023/07/22 02:57:42;;;;;;;5.45;1.65;;;;;;;19.32;83.88;99251.22;5095264;28;20460;-59
2023/07/22 03:00:12;;;;;;;;;;;;;;;19.31;84.19;99249.56;5094087;28;20036;-59
2023/07/22 03:02:41;;;;;;;1.27;0.95;;;;;;;19.30;84.18;99255.63;5093770;28;19920;-60
2023/07/22 03:05:11;;;;;;;0.77;0.77;;;;;;;19.20;84.36;99259.53;5095369;28;20043;-60
2023/07/22 03:07:40;;;;;;;1.30;1.08;;;;;;;19.08;84.54;99262.63;5094578;28;20050;-60
2023/07/22 03:10:09;;;;;;;;;;;;;;;18.98;84.79;99269.09;5095327;28;20413;-60
2023/07/22 03:12:39;;;;;;;0.85;0.85;;;;;;;18.87;84.68;99266.94;5094567;28;19928;-60
2023/07/22 03:15:09;;;;;;;1.67;1.20;;;;;;;18.82;85.27;99273.19;5094710;28;20379;-59
2023/07/22 03:17:41;;;;;;;1.27;1.17;;;;;;;18.87;85.02;99276.44;5093441;28;20052;-60
2023/07/22 03:20:14;;;;;;;2.25;0.77;;;;;;;18.88;85.10;99278.16;5094540;28;20048;-59
2023/07/22 03:22:44;;;;;;;3.80;0.80;;;;;;;18.84;85.07;99267.06;5094413;28;20151;-60
2023/07/22 03:25:14;;;;;;;0.65;0.65;;;;;;;18.84;85.15;99272.25;5094432;28;20097;-60
2023/07/22 03:27:43;;;;;;;2.90;1.83;;;;;;;18.80;85.30;99269.84;5094699;28;20064;-60
2023/07/22 03:30:16;;;;;;;4.78;1.65;;;;;;;18.79;85.75;99273.34;5093071;28;20111;-60
2023/07/22 03:32:50;;;;;;;1.05;1.00;;;;;;;18.81;85.82;99261.19;5094299;28;20058;-60
2023/07/22 03:35:19;;;;;;;1.00;1.00;;;;;;;18.82;85.86;99262.84;5093689;28;20040;-60
2023/07/22 03:37:48;;;;;;;1.15;1.02;;;;;;;18.83;85.88;99260.22;5093312;28;20102;-60
2023/07/22 03:40:19;;;;;;;1.05;0.80;;;;;;;18.87;86.00;99276.44;5093888;28;20089;-60
2023/07/22 03:42:50;;;;;;;1.33;1.23;;;;;;;18.91;85.88;99267.69;5092843;28;20054;-60
2023/07/22 03:45:20;;;;;;;0.60;0.60;;;;;;;18.91;85.79;99272.84;5094179;28;20131;-59
2023/07/22 03:47:52;;;;;;;1.27;1.17;;;;;;;18.97;85.70;99272.59;5094004;28;20506;-59
2023/07/22 03:50:21;;;;;;;2.60;2.17;;;;;;;19.04;85.60;99279.19;5094359;28;20040;-60
2023/07/22 03:52:50;;;;;;;1.42;1.02;;;;;;;19.05;85.38;99286.06;5092799;28;20501;-59
2023/07/22 03:55:19;;;;;;;1.30;1.20;;;;;;;19.07;85.35;99285.09;5093921;28;20040;-59
2023/07/22 03:57:48;;;;;;;2.95;1.23;;;;;;;19.06;84.93;99293.75;5093035;28;20101;-59
2023/07/22 04:00:18;;;;;;;1.40;1.15;;;;;;;19.02;85.19;99294.78;5093904;28;20517;-60
2023/07/22 04:02:46;;;;;;;2.53;1.23;;;;;;;18.95;85.25;99295.09;5092656;28;20516;-59
2023/07/22 04:05:17;;;;;;;1.42;1.20;;;;;;;18.98;85.20;99294.97;5092668;28;20119;-59
2023/07/22 04:07:46;;;;;;;2.25;1.50;;;;;;;19.04;85.33;99289.53;5093845;28;20055;-59
2023/07/22 04:10:15;;;;;;;0.93;0.88;;;;;;;19.10;85.21;99292.69;5093938;28;20071;-59
2023/07/22 04:12:44;;;;;;;0.60;0.60;;;;;;;19.13;85.11;99294.31;5093703;28;20039;-59
2023/07/22 04:15:15;;;;;;;1.27;1.17;;;;;;;19.21;84.82;99295.69;5093731;28;20152;-60
2023/07/22 04:17:44;;;;;;;0.70;0.70;;;;;;;19.29;84.76;99300.56;5093708;28;20056;-60
2023/07/22 04:20:13;;;;;;;1.92;1.30;;;;;;;19.37;84.57;99301.09;5093596;28;20505;-59
2023/07/22 04:22:43;;;;;;;2.15;1.83;;;;;;;19.48;84.33;99306.66;5092742;28;20378;-60
2023/07/22 04:25:12;;;;;;;2.10;1.90;;;;;;;19.54;84.04;99316.75;5093542;28;20055;-59
2023/07/22 04:27:41;;;;;;;2.20;1.23;;;;;;;19.57;83.87;99319.22;5093557;28;20048;-59
2023/07/22 04:30:12;;;;;;;2.90;1.85;;;;;;;19.60;83.65;99316.50;5093822;28;20469;-59
2023/07/22 04:32:44;;;;;;;1.98;1.30;;;;;;;19.69;83.31;99320.44;5093569;28;20047;-59
2023/07/22 04:35:13;;;;;;;1.75;1.63;;;;;;;19.84;83.18;99314.59;5093464;28;20122;-59
2023/07/22 04:37:43;;;;;;;2.23;1.33;;;;;;;19.98;82.72;99323.44;5092306;28;20064;-59
2023/07/22 04:40:16;;;;;;;0.80;0.80;;;;;;;20.04;82.12;99323.16;5093547;28;20269;-60
2023/07/22 04:42:46;;;;;;;1.77;1.30;;;;;;;20.13;81.62;99331.41;5095395;28;20044;-59
2023/07/22 04:45:14;;;;;;;2.03;1.50;;;;;;;20.23;81.42;99332.72;5097422;28;20044;-60
2023/07/22 04:47:46;;;;;;;1.23;1.13;;;;;;;20.29;80.89;99332.44;5097760;28;20060;-59
2023/07/22 04:50:16;;;;;;;3.72;1.20;;;;;;;20.41;80.51;99331.88;5097368;28;20048;-59
2023/07/22 04:52:48;;;;;;;2.67;1.67;;;;;;;20.47;80.33;99326.38;5097696;28;20060;-59
2023/07/22 04:55:17;;;;;;;0.93;0.88;;;;;;;20.56;79.76;99333.75;5097355;28;20311;-60
2023/07/22 04:57:46;;;;;;;0.52;0.52;;;;;;;20.58;79.48;99342.31;5097625;28;20039;-60
2023/07/22 05:00:16;;;;;;;0.80;0.80;;;;;;;20.69;79.13;99342.63;5097267;28;20044;-60
2023/07/22 05:02:45;;;;;;;1.38;1.27;;;;;;;20.69;78.77;99342.63;5097372;28;20051;-60
2023/07/22 05:05:14;;;;;;;1.50;1.40;;;;;;;20.81;78.40;99341.19;5097377;28;20055;-60
2023/07/22 05:07:45;;;;;;;0.95;0.77;;;;;;;20.91;78.17;99340.69;5097351;28;20508;-60
2023/07/22 05:10:16;;;;;;;1.33;1.02;;;;;;;21.00;77.56;99337.66;5097700;28;20075;-60
2023/07/22 05:12:45;;;;;;;0.68;0.65;;;;;;;21.04;77.39;99334.00;5097837;28;20127;-60
2023/07/22 05:15:15;;;;;;;1.40;1.30;;;;;;;21.11;76.89;99335.44;5096879;28;20127;-60
2023/07/22 05:17:43;;;;;;;3.05;1.05;;;;;;;21.19;76.70;99328.09;5096912;28;20337;-60
2023/07/22 05:20:12;;;;;;;1.20;1.10;;;;;;;21.31;76.31;99332.66;5096800;28;20040;-60
2023/07/22 05:22:42;;;;;;;1.45;1.35;;;;;;;21.44;75.92;99337.25;5096772;28;20285;-60
2023/07/22 05:25:10;;;;;;;0.60;0.60;;;;;;;21.59;75.46;99336.50;5096693;28;20066;-60
2023/07/22 05:27:41;;;;;;;0.65;0.65;;;;;;;21.63;75.00;99343.19;5096749;28;20043;-60
2023/07/22 05:30:11;;;;;;;0.98;0.90;;;;;;;21.72;74.71;99358.31;5096849;28;20041;-60
2023/07/22 05:32:56;;;;;;;2.05;1.40;;;;;;;21.81;73.71;99357.84;5096889;28;20485;-60
2023/07/22 05:35:25;;;;;;;0.85;0.75;;;;;;;21.93;73.37;99354.66;5096502;28;20044;-60
2023/07/22 05:37:54;;;;;;;1.02;0.70;;;;;;;21.99;72.81;99352.56;5096364;28;20081;-61
2023/07/22 05:40:23;;;;;;;1.08;0.95;;;;;;;22.06;72.27;99358.28;5096243;28;20105;-60
2023/07/22 05:42:54;;;;;;;0.68;0.60;;;;;;;22.00;71.17;99356.81;5096725;28;20066;-60
2023/07/22 05:45:23;;;;;;;1.05;1.05;;;;;;;21.96;70.73;99351.88;5096626;28;20052;-60
2023/07/22 05:47:52;;;;;;;0.80;0.80;;;;;;;21.98;70.22;99361.28;5096243;28;20063;-60
2023/07/22 05:50:21;;;;;;;0.75;0.75;;;;;;;21.93;70.12;99357.25;5096242;28;20553;-59
2023/07/22 05:52:50;;;;;;;1.13;0.80;;;;;;;21.95;69.43;99356.22;5096785;28;20032;-59
2023/07/22 05:55:19;;;;;;;0.55;0.55;;;;;;;22.03;69.00;99358.44;5094877;28;20032;-59
2023/07/22 05:57:47;;;;;;;1.70;0.85;;;;;;;22.06;68.61;99360.88;5096026;28;20093;-59
2023/07/22 06:00:18;;;;;;;0.60;0.60;;;;;;;22.18;68.15;99362.84;5096274;28;20040;-59
2023/07/22 06:02:48;;;;;;;0.70;0.70;;;;;;;22.30;67.98;99364.78;5096142;28;20097;-60
2023/07/22 06:05:18;;;;;;;0.75;0.75;;;;;;;22.45;67.46;99366.56;5096016;28;20422;-59
2023/07/22 06:07:46;;;;;;;0.60;0.60;;;;;;;22.45;66.90;99370.94;5095876;28;20119;-59
2023/07/22 06:10:15;;;;;;;0.70;0.70;;;;;;;22.47;66.77;99375.13;5095691;28;20524;-59
2023/07/22 06:12:44;;;;;;;2.80;1.10;;;;;;;22.56;66.23;99374.63;5095827;28;20126;-59
2023/07/22 06:15:13;;;;;;;1.15;1.05;;;;;;;22.59;65.78;99374.47;5096189;28;20551;-59
2023/07/22 06:17:43;;;;;;;2.05;1.35;;;;;;;22.70;65.41;99370.47;5095674;28;20089;-59
2023/07/22 06:20:13;;;;;;;0.47;0.47;;;;;;;22.79;65.13;99382.97;5095991;28;20051;-59
2023/07/22 06:22:42;;;;;;;0.73;0.70;;;;;;;22.72;65.10;99374.66;5095984;28;20044;-59
2023/07/22 06:25:11;;;;;;;0.77;0.75;;;;;;;22.85;65.11;99375.66;5095792;28;20040;-59
2023/07/22 06:27:40;;;;;;;0.70;0.70;;;;;;;22.73;64.77;99376.31;5095540;28;20048;-59
2023/07/22 06:30:10;;;;;;;1.95;0.98;;;;;;;22.67;64.75;99382.69;5095367;28;20040;-60
2023/07/22 06:32:41;;;;;;;0.60;0.60;;;;;;;22.83;64.80;99387.06;5095592;28;20044;-60
2023/07/22 06:35:12;;;;;;;0.63;0.63;;;;;;;22.95;64.45;99391.59;5095989;28;20094;-60
2023/07/22 06:37:40;;;;;;;0.63;0.63;;;;;;;23.07;63.82;99391.75;5095387;28;20093;-60
2023/07/22 06:40:10;;;;;;;1.08;0.98;;;;;;;23.15;63.25;99392.19;5095364;28;20151;-61
2023/07/22 06:42:39;;;;;;;0.75;0.75;;;;;;;23.31;62.92;99394.72;5095572;28;20115;-59
2023/07/22 06:45:09;;;;;;;0.50;0.50;;;;;;;23.36;62.35;99392.75;5095182;28;20051;-59
2023/07/22 06:47:38;;;;;;;0.73;0.73;;;;;;;23.37;62.36;99389.19;5095440;28;20160;-60
2023/07/22 06:50:08;;;;;;;1.30;1.20;;;;;;;23.54;61.95;99391.66;5095127;28;20116;-60
2023/07/22 06:52:38;;;;;;;1.05;0.95;;;;;;;23.69;61.55;99393.38;5095023;28;20040;-60
2023/07/22 06:55:07;;;;;;;0.65;0.65;;;;;;;23.86;61.13;99397.59;5095060;28;20067;-60
2023/07/22 06:57:36;;;;;;;;;;;;;;;23.92;60.58;99407.69;5095372;28;20051;-60
2023/07/22 07:00:06;;;;;;;0.82;0.70;;;;;;;23.93;60.62;99404.97;5094843;28;19919;-60
2023/07/22 07:02:35;;;;;;;0.63;0.63;;;;;;;23.99;60.16;99414.19;5094902;28;20431;-60
2023/07/22 07:05:04;;;;;;;0.80;0.80;;;;;;;24.07;59.94;99411.19;5094731;28;20063;-60
2023/07/22 07:07:33;;;;;;;1.88;1.60;;;;;;;24.13;59.46;99413.41;5094768;28;20042;-60
2023/07/22 07:10:04;;;;;;;0.90;0.82;;;;;;;24.27;59.40;99414.25;5094615;28;20389;-60
2023/07/22 07:12:33;;;;;;;0.52;0.52;;;;;;;24.30;58.88;99418.44;5094637;28;20048;-60
2023/07/22 07:15:02;;;;;;;0.40;0.40;;;;;;;24.39;58.23;99413.50;5093664;28;20051;-60
2023/07/22 07:17:32;;;;;;;1.23;1.05;;;;;;;24.49;57.85;99424.22;5094891;28;20742;-60
2023/07/22 07:20:01;;;;;;;0.57;0.57;;;;;;;24.50;57.29;99420.66;5095039;28;20044;-59
2023/07/22 07:22:30;;;;;;;0.77;0.73;;;;;;;24.64;57.23;99418.03;5095128;28;20036;-60
2023/07/22 07:24:59;;;;;;;0.50;0.50;;;;;;;24.71;56.89;99415.88;5094327;28;20040;-60
2023/07/22 07:27:30;;;;;;;0.73;0.73;;;;;;;24.75;56.29;99419.97;5094631;28;20132;-60
2023/07/22 07:29:59;;;;;;;1.10;1.00;;;;;;;24.86;55.91;99423.59;5094218;28;20089;-59
2023/07/22 07:32:27;;;;;;;1.10;0.73;;;;;;;24.95;55.62;99425.66;5094472;28;20036;-60
2023/07/22 07:34:56;;;;;;;0.80;0.80;;;;;;;24.96;54.88;99424.72;5094549;28;20044;-60
2023/07/22 07:37:25;;;;;;;1.05;0.95;;;;;;;25.09;54.94;99435.22;5094100;28;20101;-60
2023/07/22 07:39:59;;;;;;;0.82;0.75;;;;;;;25.14;54.95;99436.63;5094105;28;20044;-60
2023/07/22 07:42:29;;;;;;;0.70;0.70;;;;;;;25.17;54.18;99433.78;5094132;28;20044;-60
2023/07/22 07:44:58;;;;;;;0.50;0.50;;;;;;;25.20;54.80;99436.19;5094382;28;20127;-60
2023/07/22 07:47:28;;;;;;;0.50;0.50;;;;;;;25.23;54.03;99433.41;5093891;28;20059;-60
2023/07/22 07:49:57;;;;;;;0.88;0.88;;;;;;;25.29;53.56;99438.22;5094081;28;20040;-60
2023/07/22 07:52:26;;;;;;;0.63;0.57;;;;;;;25.34;53.25;99443.13;5093944;28;20040;-60
2023/07/22 07:54:55;;;;;;;0.80;0.80;;;;;;;25.30;52.93;99439.91;5094203;28;20050;-60
2023/07/22 07:57:24;;;;;;;1.02;0.85;;;;;;;25.49;52.14;99441.34;5093945;28;20082;-60
2023/07/22 07:59:54;;;;;;;0.98;0.75;;;;;;;25.44;51.63;99444.25;5094352;28;20097;-60
2023/07/22 08:02:23;;;;;;;0.73;0.73;;;;;;;25.58;52.21;99456.44;5094178;28;20044;-60
2023/07/22 08:04:52;;;;;;;1.10;0.95;;;;;;;25.64;52.17;99456.03;5093619;28;20048;-60
2023/07/22 08:07:20;;;;;;;0.47;0.47;;;;;;;25.78;50.77;99461.19;5093686;28;20093;-60
2023/07/22 08:09:49;;;;;;;0.50;0.50;;;;;;;25.90;49.36;99455.13;5093790;28;20044;-60
2023/07/22 08:12:18;;;;;;;0.63;0.63;;;;;;;26.07;48.68;99461.84;5093578;28;20050;-60
2023/07/22 08:14:47;;;;;;;0.40;0.40;;;;;;;26.20;48.43;99463.53;5094032;28;20039;-60
2023/07/22 08:17:17;;;;;;;0.50;0.50;;;;;;;26.33;47.62;99464.41;5092804;28;20493;-60
2023/07/22 08:19:46;;;;;;;0.40;0.40;;;;;;;26.46;46.90;99470.47;5094038;28;20044;-60
2023/07/22 08:22:15;;;;;;;0.60;0.60;;;;;;;26.56;46.67;99466.25;5093620;28;20048;-60
2023/07/22 08:24:44;;;;;;;0.50;0.50;;;;;;;26.51;46.38;99473.59;5093569;28;20060;-60
2023/07/22 08:27:17;;;;;;;0.60;0.60;;;;;;;26.53;45.10;99489.22;5092434;28;20144;-60
2023/07/22 08:29:46;;;;;;;0.52;0.52;;;;;;;26.61;45.13;99479.88;5094041;28;20044;-60
2023/07/22 08:32:15;;;;;;;0.52;0.52;;;;;;;26.67;44.15;99477.75;5093541;28;20039;-60
2023/07/22 08:34:45;;;;;;;0.35;0.35;;;;;;;26.75;43.42;99472.84;5093451;28;20048;-61
2023/07/22 08:37:14;;;;;;;0.40;0.40;;;;;;;26.87;43.91;99474.63;5093509;28;20048;-60
2023/07/22 08:39:43;;;;;;;0.55;0.45;;;;;;;26.90;43.99;99485.72;5093433;28;20044;-60
2023/07/22 08:42:14;;;;;;;0.40;0.40;;;;;;;26.94;43.77;99486.34;5093473;28;20113;-61
2023/07/22 08:44:45;;;;;;;0.50;0.43;;;;;;;26.97;43.58;99492.19;5093504;28;20401;-60
2023/07/22 08:47:17;;;;;;;0.40;0.40;;;;;;;27.00;43.42;99481.50;5093367;28;20040;-60
2023/07/22 08:49:53;;;;;;;0.35;0.35;;;;;;;27.15;44.75;99477.78;5093490;28;20131;-60
2023/07/22 08:52:24;;;;;;;0.40;0.40;;;;;;;27.37;44.12;99484.09;5093535;28;20071;-60
2023/07/22 08:54:53;;;;;;;0.40;0.40;;;;;;;27.29;43.31;99479.41;5093853;28;20074;-60
2023/07/22 08:57:23;;;;;;;1.05;0.82;;;;;;;26.95;43.38;99474.91;5093383;28;20406;-61
2023/07/22 08:59:52;;;;;;;;;;;;;;;27.11;44.14;99489.41;5093671;28;20036;-60
2023/07/22 09:02:22;;;;;;;0.55;0.55;;;;;;;27.16;43.04;99483.88;5093188;28;19920;-60
2023/07/22 09:04:52;;;;;;;0.60;0.60;;;;;;;27.43;43.43;99491.53;5093177;28;20127;-60
2023/07/22 09:07:21;;;;;;;0.50;0.50;;;;;;;27.39;42.76;99503.19;5093160;28;20048;-60
2023/07/22 09:09:51;;;;;;;0.45;0.45;;;;;;;27.07;42.84;99492.38;5093164;28;20046;-60
2023/07/22 09:12:22;;;;;;;0.70;0.70;;;;;;;27.07;43.43;99503.69;5093051;28;20036;-60
2023/07/22 09:14:53;;;;;;;0.40;0.40;;;;;;;27.20;43.38;99499.28;5093136;28;20047;-60
2023/07/22 09:17:22;;;;;;;0.65;0.63;;;;;;;27.51;43.44;99503.16;5093367;28;20075;-60
2023/07/22 09:19:54;;;;;;;0.40;0.40;;;;;;;27.68;43.38;99507.16;5093349;28;20047;-60
2023/07/22 09:22:28;;;;;;;0.55;0.55;;;;;;;27.59;42.56;99499.97;5093221;28;20040;-60
2023/07/22 09:25:15;;;;;;;0.40;0.40;;;;;;;27.56;42.88;99511.53;5093387;28;20070;-60
2023/07/22 09:27:44;;;;;;;0.40;0.40;;;;;;;27.72;42.47;99505.97;5093203;28;20047;-60
2023/07/22 09:30:26;;;;;;;0.40;0.40;;;;;;;27.64;42.57;99511.78;5097118;28;20122;-60
2023/07/22 09:32:57;;;;;;;1.27;0.85;;;;;;;27.88;42.97;99520.47;5096537;28;20050;-60
2023/07/22 09:35:28;;;;;;;0.40;0.40;;;;;;;27.75;41.78;99506.59;5096596;28;20519;-60
2023/07/22 09:37:59;;;;;;;0.63;0.50;;;;;;;27.93;42.29;99520.13;5097090;28;20035;-60
2023/07/22 09:40:28;;;;;;;0.43;0.43;;;;;;;28.11;41.88;99521.41;5096329;28;20040;-60
2023/07/22 09:43:02;;;;;;;0.70;0.70;;;;;;;28.14;41.60;99518.56;5096449;28;20123;-60
2023/07/22 09:45:32;;;;;;;0.77;0.77;;;;;;;27.95;41.67;99520.03;5096651;28;20051;-61
2023/07/22 09:48:01;;;;;;;0.77;0.77;;;;;;;28.07;41.76;99512.13;5096579;28;20044;-60
2023/07/22 09:50:31;;;;;;;1.38;0.88;;;;;;;28.18;40.98;99513.91;5096817;28;20036;-60
2023/07/22 09:53:03;;;;;;;0.55;0.55;;;;;;;28.26;40.84;99506.31;5096210;28;20067;-60
2023/07/22 09:55:34;;;;;;;0.50;0.50;;;;;;;28.37;40.05;99503.69;5096118;28;20094;-60
2023/07/22 09:58:05;;;;;;;0.47;0.47;;;;;;;28.52;39.54;99503.34;5096135;28;20044;-60
2023/07/22 10:00:35;;;;;;;0.40;0.40;;;;;;;28.61;39.48;99507.06;5096300;28;20044;-60
2023/07/22 10:03:10;;;;;;;0.63;0.63;;;;;;;28.62;39.20;99507.94;5096086;28;20044;-60
2023/07/22 10:05:44;;;;;;;0.50;0.50;;;;;;;28.64;39.59;99521.78;5095012;28;20051;-60
2023/07/22 10:08:20;;;;;;;0.52;0.52;;;;;;;28.69;39.44;99525.72;5095879;28;20052;-60
2023/07/22 10:10:53;;;;;;;0.77;0.63;;;;;;;28.61;38.72;99503.63;5096207;28;20409;-60
2023/07/22 10:13:22;;;;;;;0.40;0.40;;;;;;;28.50;38.02;99505.28;5095967;28;20045;-60
2023/07/22 10:15:52;;;;;;;0.77;0.75;;;;;;;28.44;38.06;99504.88;5095345;28;20046;-60
2023/07/22 10:18:24;;;;;;;0.50;0.50;;;;;;;28.55;38.15;99497.03;5095803;28;20494;-60
2023/07/22 10:20:56;;;;;;;0.63;0.63;;;;;;;28.58;37.96;99509.91;5095715;28;20101;-59
2023/07/22 10:23:27;;;;;;;0.50;0.50;;;;;;;28.75;38.45;99511.25;5095645;28;20040;-60
2023/07/22 10:25:59;;;;;;;0.40;0.40;;;;;;;28.77;38.24;99506.75;5095605;28;20051;-60
2023/07/22 10:28:30;;;;;;;1.05;0.63;;;;;;;28.46;38.70;99509.06;5095819;28;20051;-60
2023/07/22 10:30:59;;;;;;;0.45;0.45;;;;;;;28.58;38.85;99513.38;5095437;28;20050;-60
2023/07/22 10:33:29;;;;;;;;;;;;;;;28.45;38.39;99507.41;5095820;28;20089;-60
2023/07/22 10:36:08;;;;;;;0.45;0.45;;;;;;;28.16;38.72;99516.66;5095390;28;19920;-60
2023/07/22 10:38:37;;;;;;;;;;;;;;;27.76;38.99;99518.75;5096747;28;20486;-60
2023/07/22 10:41:16;;;;;;;0.47;0.47;;;;;;;27.47;38.93;99514.81;5094274;28;20392;-59
2023/07/22 10:43:56;;;;;;;4.47;1.13;;;;;;;27.26;39.58;99524.19;5095214;28;20048;-59
2023/07/22 10:46:39;;;;;;;0.45;0.45;;;;;;;27.36;39.35;99525.19;5095275;28;20051;-60
2023/07/22 10:49:13;;;;;;;0.65;0.65;;;;;;;27.65;39.01;99526.59;5095422;28;20062;-60
2023/07/22 10:51:49;;;;;;;0.30;0.30;;;;;;;27.96;39.03;99511.19;5095272;28;20048;-59
2023/07/22 10:54:35;;;;;;;0.50;0.50;;;;;;;27.83;39.09;99509.47;5095049;28;20555;-60
2023/07/22 10:57:23;;;;;;;0.43;0.43;;;;;;;28.16;39.06;99510.56;5094947;28;20040;-60
2023/07/22 10:59:53;;;;;;;0.68;0.68;;;;;;;28.45;38.99;99515.28;5095151;28;20051;-60
2023/07/22 11:02:26;;;;;;;0.40;0.40;;;;;;;28.69;38.72;99520.47;5094852;28;20052;-59
2023/07/22 11:04:59;;;;;;;0.52;0.52;;;;;;;28.94;38.81;99514.09;5094813;28;20550;-60
2023/07/22 11:07:33;;;;;;;0.68;0.68;;;;;;;28.96;37.91;99513.03;5094828;28;20044;-60
2023/07/22 11:10:15;;;;;;;0.77;0.77;;;;;;;29.30;37.99;99515.66;5095041;28;20052;-60
2023/07/22 11:12:46;;;;;;;1.05;0.70;;;;;;;29.44;37.74;99507.50;5095474;28;20028;-60
2023/07/22 11:15:17;;;;;;;0.60;0.60;;;;;;;29.54;37.23;99514.50;5094615;28;20044;-60
2023/07/22 11:17:46;;;;;;;0.70;0.70;;;;;;;29.23;37.08;99510.03;5095284;28;20405;-60
2023/07/22 11:20:15;;;;;;;0.40;0.40;;;;;;;28.84;36.98;99515.81;5094561;28;20044;-60
2023/07/22 11:22:45;;;;;;;0.50;0.50;;;;;;;28.56;37.61;99519.69;5094493;28;20052;-60
2023/07/22 11:25:19;;;;;;;0.95;0.95;;;;;;;28.50;37.44;99514.94;5095005;28;20409;-60
2023/07/22 11:27:48;;;;;;;0.70;0.70;;;;;;;28.34;37.90;99503.91;5094451;28;20128;-59
2023/07/22 11:30:17;;;;;;;0.40;0.40;;;;;;;28.22;38.19;99507.50;5094609;28;20490;-60
2023/07/22 11:32:47;;;;;;;0.50;0.50;;;;;;;28.18;37.25;99508.66;5094750;28;20063;-60
2023/07/22 11:35:20;;;;;;;0.65;0.65;;;;;;;28.28;36.84;99499.13;5093625;28;20059;-60
2023/07/22 11:37:50;;;;;;;0.32;0.32;;;;;;;28.68;37.95;99503.03;5094819;28;20032;-60
2023/07/22 11:40:19;;;;;;;0.70;0.70;;;;;;;28.96;36.99;99497.25;5093933;28;20135;-60
2023/07/22 11:42:51;;;;;;;0.50;0.50;;;;;;;29.12;36.49;99492.47;5093849;28;20047;-60
2023/07/22 11:45:19;;;;;;;0.73;0.70;;;;;;;29.09;36.45;99487.47;5093401;28;20036;-61
2023/07/22 11:47:48;;;;;;;0.60;0.60;;;;;;;29.15;36.48;99484.31;5092310;28;20036;-61
2023/07/22 11:50:17;;;;;;;0.40;0.40;;;;;;;29.39;36.28;99488.63;5096961;28;20032;-61